Time;durP1;ratioP1;P1;durP2;ratioP2;P2;SDS_P1;SDS_P2;PMS_P1;PMS_P2;Temp;Humidity;BMP_temperature;BMP_pressure;BME280_temperature;BME280_humidity;BME280_pressure;Samples;Min_cycle;Max_cycle;Signal;HPM_P1;HPM_P2
2021/09/13 00:02:08;;;;;;;12.52;9.52;;;16.70;84.10;;;;;;4963073;29;20042;-92
2021/09/13 00:04:34;;;;;;;13.32;10.23;;;16.60;84.40;;;;;;4961995;29;20033;-93
2021/09/13 00:07:00;;;;;;;13.15;9.20;;;16.60;84.60;;;;;;4979882;29;20019;-94
2021/09/13 00:09:26;;;;;;;12.35;9.57;;;16.60;85.00;;;;;;4961668;29;20028;-93
2021/09/13 00:11:52;;;;;;;12.93;9.93;;;16.50;85.30;;;;;;4969892;29;20035;-94
2021/09/13 00:14:19;;;;;;;12.95;9.02;;;16.50;85.50;;;;;;4941130;29;20031;-93
2021/09/13 00:16:45;;;;;;;14.15;9.70;;;16.40;85.80;;;;;;4941241;29;20122;-93
2021/09/13 00:19:10;;;;;;;13.63;9.40;;;16.40;85.90;;;;;;4941043;29;20035;-93
2021/09/13 00:21:36;;;;;;;14.02;9.50;;;16.30;85.90;;;;;;4941178;29;20032;-94
2021/09/13 00:24:02;;;;;;;12.15;8.50;;;16.30;86.20;;;;;;4940503;28;20114;-93
2021/09/13 00:26:28;;;;;;;12.32;9.18;;;16.30;86.40;;;;;;4942007;29;20110;-93
2021/09/13 00:28:53;;;;;;;11.57;9.43;;;16.20;86.60;;;;;;4957023;29;20187;-94
2021/09/13 00:31:19;;;;;;;12.15;9.23;;;16.20;86.70;;;;;;4957678;29;20028;-93
2021/09/13 00:33:45;;;;;;;11.40;8.93;;;16.10;86.90;;;;;;4957088;29;20549;-94
2021/09/13 00:36:11;;;;;;;12.25;9.75;;;16.10;87.10;;;;;;4940805;29;20105;-93
2021/09/13 00:38:36;;;;;;;14.27;9.77;;;16.10;87.90;;;;;;4941169;29;20466;-93
2021/09/13 00:41:03;;;;;;;13.18;9.77;;;16.00;87.50;;;;;;4940409;29;20058;-94
2021/09/13 00:43:29;;;;;;;10.95;9.00;;;16.00;87.70;;;;;;4957415;29;20031;-94
2021/09/13 00:45:55;;;;;;;13.10;9.60;;;16.00;88.00;;;;;;4957076;28;20522;-94
2021/09/13 00:48:21;;;;;;;14.50;10.55;;;15.90;88.10;;;;;;4956896;29;20031;-93
2021/09/13 00:50:46;;;;;;;11.23;8.93;;;15.90;88.70;;;;;;4940035;29;20144;-93
2021/09/13 00:53:12;;;;;;;15.60;10.60;;;15.90;89.20;;;;;;4956895;29;20434;-93
2021/09/13 00:55:38;;;;;;;14.40;9.68;;;15.90;88.80;;;;;;4939857;29;20439;-93
2021/09/13 00:58:04;;;;;;;12.38;9.95;;;16.00;88.70;;;;;;4956850;29;20032;-94
2021/09/13 01:00:30;;;;;;;15.95;11.05;;;16.00;88.70;;;;;;4940284;29;20031;-93
2021/09/13 01:02:55;;;;;;;13.02;9.45;;;16.00;88.70;;;;;;4939800;29;20053;-93
2021/09/13 01:05:21;;;;;;;13.55;9.23;;;16.00;88.70;;;;;;4939880;29;20081;-93
2021/09/13 01:07:47;;;;;;;12.90;10.20;;;15.90;88.80;;;;;;4939407;29;20031;-93
2021/09/13 01:10:13;;;;;;;15.23;9.88;;;15.90;88.90;;;;;;4939753;29;20027;-93
2021/09/13 01:12:39;;;;;;;13.07;10.52;;;15.90;89.10;;;;;;4940068;29;20027;-93
2021/09/13 01:15:05;;;;;;;12.60;9.25;;;15.90;89.10;;;;;;4940272;29;20038;-94
2021/09/13 01:17:31;;;;;;;14.23;10.63;;;15.80;89.70;;;;;;4939493;29;20382;-93
2021/09/13 01:19:57;;;;;;;10.23;8.57;;;15.80;89.30;;;;;;4939782;29;20114;-93
2021/09/13 01:22:26;;;;;;;14.07;9.48;;;15.70;89.40;;;;;;4939890;29;20504;-94
2021/09/13 01:24:52;;;;;;;13.23;9.20;;;15.70;89.60;;;;;;4939476;29;20055;-93
2021/09/13 01:27:19;;;;;;;14.38;10.00;;;15.60;89.70;;;;;;4939484;29;20065;-93
2021/09/13 01:29:44;;;;;;;13.98;9.90;;;15.60;90.00;;;;;;4942362;29;20038;-93
2021/09/13 01:32:11;;;;;;;14.85;10.25;;;15.60;90.40;;;;;;4946176;29;20031;-94
2021/09/13 01:34:37;;;;;;;14.20;11.18;;;15.50;90.20;;;;;;4944428;29;20051;-93
2021/09/13 01:37:02;;;;;;;12.93;9.38;;;15.50;90.30;;;;;;4942976;29;20039;-93
2021/09/13 01:39:28;;;;;;;12.52;9.02;;;15.50;90.20;;;;;;4945011;29;20031;-94
2021/09/13 01:41:55;;;;;;;12.60;9.82;;;15.50;90.40;;;;;;4947646;29;20377;-93
2021/09/13 01:44:20;;;;;;;11.90;9.48;;;15.40;90.40;;;;;;4943585;29;20114;-94
2021/09/13 01:46:46;;;;;;;13.43;9.93;;;15.40;90.40;;;;;;4943517;29;20066;-93
2021/09/13 01:49:13;;;;;;;13.20;10.43;;;15.30;90.50;;;;;;4943190;29;20385;-93
2021/09/13 01:51:40;;;;;;;14.82;9.30;;;15.30;90.60;;;;;;4943567;29;20032;-93
2021/09/13 01:54:06;;;;;;;12.93;9.43;;;15.30;90.60;;;;;;4943549;29;20118;-93
2021/09/13 01:56:32;;;;;;;13.57;9.90;;;15.20;90.70;;;;;;4942910;29;20078;-94
2021/09/13 01:58:59;;;;;;;14.48;9.68;;;15.20;90.80;;;;;;4943329;29;20451;-93
2021/09/13 02:01:25;;;;;;;12.70;9.05;;;15.20;91.00;;;;;;4942608;29;20031;-93
2021/09/13 02:03:51;;;;;;;15.23;12.27;;;15.10;91.10;;;;;;4959728;29;20023;-93
2021/09/13 02:06:17;;;;;;;14.95;11.77;;;15.10;91.60;;;;;;4959846;29;20050;-93
2021/09/13 02:08:43;;;;;;;15.05;11.85;;;15.20;91.70;;;;;;4942990;29;20038;-92
2021/09/13 02:11:10;;;;;;;17.88;11.98;;;15.20;91.80;;;;;;4942498;29;20035;-93
2021/09/13 02:13:36;;;;;;;17.40;12.15;;;15.30;91.90;;;;;;4942794;29;20028;-93
2021/09/13 02:16:02;;;;;;;14.43;10.60;;;15.40;91.80;;;;;;4942782;29;20081;-93
2021/09/13 02:18:28;;;;;;;13.32;10.05;;;15.40;91.50;;;;;;4959663;29;20038;-94
2021/09/13 02:20:54;;;;;;;14.32;9.93;;;15.40;91.40;;;;;;4942647;29;20039;-93
2021/09/13 02:23:20;;;;;;;14.23;9.85;;;15.40;91.30;;;;;;4942817;29;20463;-93
2021/09/13 02:25:46;;;;;;;14.10;9.30;;;15.40;91.40;;;;;;4942678;29;20059;-93
2021/09/13 02:28:11;;;;;;;13.30;8.45;;;15.30;91.30;;;;;;4942727;29;20038;-93
2021/09/13 02:30:37;;;;;;;12.77;9.45;;;15.30;91.40;;;;;;4959193;29;20027;-94
2021/09/13 02:33:03;;;;;;;13.85;10.23;;;15.30;91.50;;;;;;4942405;29;20027;-93
2021/09/13 02:35:29;;;;;;;14.13;10.60;;;15.30;91.50;;;;;;4942435;29;20054;-93
2021/09/13 02:37:55;;;;;;;11.90;9.15;;;15.20;91.60;;;;;;4942792;29;20035;-93
2021/09/13 02:40:21;;;;;;;14.05;8.73;;;15.30;91.70;;;;;;4942949;29;20098;-93
2021/09/13 02:42:48;;;;;;;11.27;8.75;;;15.20;91.70;;;;;;4942315;29;20151;-92
2021/09/13 02:45:14;;;;;;;13.27;8.85;;;15.20;91.60;;;;;;4942363;29;20055;-93
2021/09/13 02:47:40;;;;;;;11.73;8.15;;;15.20;91.70;;;;;;4942580;29;20062;-93
2021/09/13 02:50:07;;;;;;;11.93;9.23;;;15.10;91.70;;;;;;4942807;29;20042;-93
2021/09/13 02:52:33;;;;;;;12.50;8.63;;;15.10;91.70;;;;;;4942229;29;20031;-93
2021/09/13 02:54:59;;;;;;;11.05;8.95;;;15.10;91.80;;;;;;4942048;29;20023;-93
2021/09/13 02:57:25;;;;;;;13.43;10.63;;;15.10;91.80;;;;;;4942071;29;20038;-93
2021/09/13 02:59:51;;;;;;;13.05;11.23;;;15.00;92.10;;;;;;4941929;29;20031;-93
2021/09/13 03:02:18;;;;;;;16.13;12.35;;;15.00;92.30;;;;;;4941745;29;20031;-93
2021/09/13 03:04:43;;;;;;;19.13;12.77;;;15.10;92.60;;;;;;4959126;29;20028;-93
2021/09/13 03:07:10;;;;;;;20.35;13.38;;;15.10;92.60;;;;;;4942243;29;20046;-93
2021/09/13 03:09:36;;;;;;;17.75;13.43;;;15.20;92.80;;;;;;4941933;29;20027;-93
2021/09/13 03:12:04;;;;;;;16.77;12.93;;;15.20;92.70;;;;;;4942005;29;20039;-93
2021/09/13 03:14:30;;;;;;;18.10;13.63;;;15.30;92.70;;;;;;4941907;29;20023;-92
2021/09/13 03:16:56;;;;;;;17.90;14.02;;;15.30;92.90;;;;;;4941592;29;20485;-94
2021/09/13 03:19:22;;;;;;;18.80;12.90;;;15.30;92.90;;;;;;4941910;29;20125;-93
2021/09/13 03:21:48;;;;;;;17.75;12.55;;;15.30;93.00;;;;;;4941701;29;20031;-93
2021/09/13 03:24:14;;;;;;;18.00;13.00;;;15.40;92.90;;;;;;4941204;29;20023;-93
2021/09/13 03:26:39;;;;;;;16.17;12.57;;;15.40;93.00;;;;;;4959860;29;20035;-93
2021/09/13 03:29:05;;;;;;;18.38;13.30;;;15.40;92.90;;;;;;4941267;29;20035;-93
2021/09/13 03:31:31;;;;;;;16.70;12.88;;;15.40;93.00;;;;;;4941348;29;20027;-93
2021/09/13 03:33:56;;;;;;;15.50;11.32;;;15.40;93.00;;;;;;4943511;29;20534;-93
2021/09/13 03:36:22;;;;;;;18.85;10.55;;;15.40;92.90;;;;;;4959919;29;20034;-93
2021/09/13 03:38:48;;;;;;;16.15;11.48;;;15.40;92.90;;;;;;4945823;29;20542;-93
2021/09/13 03:41:14;;;;;;;19.55;12.98;;;15.40;93.00;;;;;;4965212;29;20070;-93
2021/09/13 03:43:39;;;;;;;16.00;12.25;;;15.40;93.10;;;;;;4945493;29;20038;-93
2021/09/13 03:46:05;;;;;;;16.30;12.52;;;15.40;93.00;;;;;;4958139;28;20034;-93
2021/09/13 03:48:31;;;;;;;16.30;12.90;;;15.40;93.10;;;;;;4941323;29;20489;-93
2021/09/13 03:50:56;;;;;;;17.30;12.35;;;15.40;93.20;;;;;;4941257;29;20094;-93
2021/09/13 03:53:22;;;;;;;17.52;12.45;;;15.40;93.20;;;;;;4958460;29;20034;-93
2021/09/13 03:55:48;;;;;;;14.82;11.65;;;15.50;93.10;;;;;;4942228;29;20036;-93
2021/09/13 03:58:14;;;;;;;15.23;11.20;;;15.50;93.10;;;;;;4941258;29;20494;-93
2021/09/13 04:00:40;;;;;;;13.73;11.07;;;15.50;93.10;;;;;;4940953;29;20130;-94
2021/09/13 04:03:10;;;;;;;14.95;11.27;;;15.50;93.10;;;;;;4940904;29;20070;-93
2021/09/13 04:05:42;;;;;;;17.08;11.70;;;15.60;93.10;;;;;;4941749;29;20033;-93
2021/09/13 04:08:20;;;;;;;16.15;11.98;;;15.70;93.00;;;;;;4941678;29;20118;-93
2021/09/13 04:13:11;;;;;;;16.38;11.82;;;15.80;92.90;;;;;;4957909;29;20031;-93
2021/09/13 04:15:37;;;;;;;21.83;14.20;;;15.80;92.90;;;;;;4941092;29;20024;-93
2021/09/13 04:18:03;;;;;;;18.33;13.35;;;15.90;92.90;;;;;;4940271;29;20027;-93
2021/09/13 04:20:29;;;;;;;15.95;13.27;;;16.00;92.80;;;;;;4940508;29;20039;-93
2021/09/13 04:22:55;;;;;;;15.00;11.85;;;16.10;92.70;;;;;;4940642;29;20027;-94
2021/09/13 04:25:20;;;;;;;20.23;14.25;;;16.20;92.60;;;;;;4940449;29;20038;-94
2021/09/13 04:27:46;;;;;;;20.05;14.68;;;16.20;92.60;;;;;;4941065;29;20031;-93
2021/09/13 04:30:12;;;;;;;18.58;13.88;;;16.30;92.50;;;;;;4942176;29;20375;-93
2021/09/13 04:32:38;;;;;;;19.88;13.98;;;16.50;92.30;;;;;;4940983;29;20038;-93
2021/09/13 04:35:04;;;;;;;16.65;12.93;;;16.50;92.30;;;;;;4937287;29;20103;-94
2021/09/13 04:37:30;;;;;;;17.55;14.77;;;16.60;92.10;;;;;;4957703;29;20474;-93
2021/09/13 04:39:55;;;;;;;17.88;14.02;;;16.70;92.00;;;;;;4957574;29;20032;-93
2021/09/13 04:42:21;;;;;;;21.75;14.55;;;16.80;91.90;;;;;;4940783;29;20102;-94
2021/09/13 04:44:47;;;;;;;17.52;13.00;;;16.90;91.80;;;;;;4941479;29;20027;-93
2021/09/13 04:47:12;;;;;;;15.57;11.60;;;17.00;91.70;;;;;;4940329;29;20082;-94
2021/09/13 04:49:38;;;;;;;17.15;14.00;;;17.10;91.50;;;;;;4941714;29;20038;-93
2021/09/13 04:52:04;;;;;;;17.95;13.77;;;17.20;91.30;;;;;;4940771;29;20351;-92
2021/09/13 04:54:30;;;;;;;20.00;13.85;;;17.30;91.20;;;;;;4940611;29;20027;-94
2021/09/13 04:56:56;;;;;;;18.42;13.63;;;17.40;91.00;;;;;;4958105;29;20028;-92
2021/09/13 04:59:21;;;;;;;15.23;12.75;;;17.40;90.90;;;;;;4941373;29;20027;-94
2021/09/13 05:01:47;;;;;;;16.60;13.45;;;17.40;90.80;;;;;;4942419;29;20478;-94
2021/09/13 05:04:13;;;;;;;13.90;12.07;;;17.40;90.80;;;;;;4940470;29;20102;-94
2021/09/13 05:06:42;;;;;;;17.88;13.27;;;17.50;90.70;;;;;;4940488;29;20198;-94
2021/09/13 05:09:08;;;;;;;15.90;13.60;;;17.60;90.70;;;;;;4940460;29;20462;-93
2021/09/13 05:11:34;;;;;;;16.15;14.02;;;17.60;90.60;;;;;;4940397;29;20034;-94
2021/09/13 05:14:00;;;;;;;19.50;14.75;;;17.70;90.50;;;;;;4941404;29;20538;-94
2021/09/13 05:16:26;;;;;;;17.73;14.68;;;17.80;90.40;;;;;;4941597;29;20023;-94
2021/09/13 05:18:51;;;;;;;17.83;15.18;;;17.90;90.30;;;;;;4941272;29;20038;-94
2021/09/13 05:21:17;;;;;;;17.40;14.32;;;17.90;90.20;;;;;;4940679;29;20038;-94
2021/09/13 05:23:43;;;;;;;15.25;12.50;;;18.00;90.10;;;;;;4939901;29;20028;-94
2021/09/13 05:26:09;;;;;;;16.70;13.65;;;18.00;90.00;;;;;;4940428;29;20032;-94
2021/09/13 05:28:34;;;;;;;20.45;14.48;;;18.10;90.00;;;;;;4957022;29;20027;-94
2021/09/13 05:31:00;;;;;;;18.38;15.85;;;18.20;89.90;;;;;;4940224;29;20118;-94
2021/09/13 05:33:26;;;;;;;15.20;13.32;;;18.30;89.50;;;;;;4940200;29;20028;-94
2021/09/13 05:35:52;;;;;;;22.02;14.63;;;18.40;89.20;;;;;;4939956;29;20027;-94
2021/09/13 05:38:18;;;;;;;19.15;14.57;;;18.50;89.10;;;;;;4940071;29;20027;-94
2021/09/13 05:40:44;;;;;;;16.48;14.77;;;18.50;88.90;;;;;;4957819;29;20092;-94
2021/09/13 05:43:11;;;;;;;17.42;12.60;;;18.50;88.70;;;;;;4940465;29;20134;-94
2021/09/13 05:45:37;;;;;;;14.82;13.18;;;18.60;88.60;;;;;;4940707;29;20455;-94
2021/09/13 05:48:04;;;;;;;16.08;14.02;;;18.70;88.60;;;;;;4941019;29;20042;-94
2021/09/13 05:50:30;;;;;;;17.02;14.93;;;18.80;88.30;;;;;;4941419;29;20034;-94
2021/09/13 05:52:57;;;;;;;15.85;13.85;;;18.90;87.90;;;;;;4940110;29;20035;-94
2021/09/13 05:55:22;;;;;;;16.75;14.98;;;19.00;87.40;;;;;;4941069;29;20459;-94
2021/09/13 05:57:48;;;;;;;15.38;13.85;;;19.10;87.00;;;;;;4939469;29;20110;-94
2021/09/13 06:00:15;;;;;;;15.95;14.25;;;19.20;86.50;;;;;;4956865;29;20039;-94
2021/09/13 06:02:43;;;;;;;17.73;15.27;;;19.30;86.00;;;;;;4940580;29;20031;-93
2021/09/13 06:05:09;;;;;;;16.05;14.45;;;19.40;85.60;;;;;;4939979;29;20122;-94
2021/09/13 06:07:35;;;;;;;15.25;13.65;;;19.50;85.10;;;;;;4939432;29;20057;-93
2021/09/13 06:10:01;;;;;;;20.15;14.10;;;19.60;84.50;;;;;;4940080;29;20468;-93
2021/09/13 06:12:27;;;;;;;19.45;13.40;;;19.70;83.90;;;;;;4939744;29;20118;-94
2021/09/13 06:14:55;;;;;;;13.90;12.18;;;19.80;83.30;;;;;;4956990;29;20027;-94
2021/09/13 06:17:21;;;;;;;17.35;13.73;;;19.90;83.40;;;;;;4939811;29;20066;-93
2021/09/13 06:19:47;;;;;;;15.13;13.52;;;20.00;82.30;;;;;;4939840;29;20035;-93
2021/09/13 06:22:13;;;;;;;16.75;13.55;;;20.10;81.90;;;;;;4940082;28;20547;-94
2021/09/13 06:24:39;;;;;;;17.45;15.30;;;20.20;81.60;;;;;;4943755;29;20054;-93
2021/09/13 06:27:06;;;;;;;15.95;14.25;;;20.20;81.10;;;;;;4943683;29;20036;-94
2021/09/13 06:29:34;;;;;;;15.13;12.82;;;20.30;81.10;;;;;;4943247;29;20027;-93
2021/09/13 06:32:00;;;;;;;16.42;13.10;;;20.40;80.90;;;;;;4943481;29;20402;-94
2021/09/13 06:34:27;;;;;;;15.55;12.57;;;20.50;80.80;;;;;;4942782;29;20077;-94
2021/09/13 06:36:52;;;;;;;18.23;14.32;;;20.50;80.50;;;;;;4943649;29;20035;-94
2021/09/13 06:39:18;;;;;;;17.27;15.48;;;20.60;80.10;;;;;;4943788;29;20042;-93
2021/09/13 06:41:46;;;;;;;17.45;15.57;;;20.70;79.10;;;;;;4942642;29;20030;-93
2021/09/13 06:44:13;;;;;;;19.13;17.02;;;20.60;78.40;;;;;;4943681;29;20448;-94
2021/09/13 06:49:04;;;;;;;17.60;14.07;;;20.70;77.60;;;;;;4959970;29;20065;-94
2021/09/13 06:51:31;;;;;;;15.30;13.75;;;20.70;77.50;;;;;;4942487;29;20027;-94
2021/09/13 06:53:56;;;;;;;16.98;13.50;;;20.80;76.50;;;;;;4942591;29;20069;-94
2021/09/13 06:56:22;;;;;;;16.67;14.73;;;20.90;76.30;;;;;;4943489;29;20047;-94
2021/09/13 07:02:18;;;;;;;13.20;11.82;;;21.00;74.60;;;;;;4960233;29;20106;-95
2021/09/13 07:04:44;;;;;;;12.55;11.20;;;21.20;74.60;;;;;;4947119;29;20062;-93
2021/09/13 07:07:09;;;;;;;14.02;12.43;;;21.30;73.90;;;;;;4971706;29;20082;-94
2021/09/13 07:09:36;;;;;;;14.52;12.50;;;21.50;73.20;;;;;;4949363;29;20469;-95
2021/09/13 07:12:02;;;;;;;14.75;13.13;;;21.60;71.00;;;;;;4950396;29;20035;-94
2021/09/13 07:14:30;;;;;;;13.98;12.45;;;21.60;70.20;;;;;;4952065;29;20065;-90
2021/09/13 07:16:56;;;;;;;14.65;13.15;;;21.70;69.80;;;;;;4952333;29;20046;-90
2021/09/13 07:19:21;;;;;;;15.02;12.27;;;21.70;69.60;;;;;;4941790;29;20055;-91
2021/09/13 07:21:47;;;;;;;12.60;10.73;;;21.80;68.90;;;;;;4942251;29;20079;-90
2021/09/13 07:24:15;;;;;;;11.93;10.82;;;21.80;69.20;;;;;;4959045;29;20051;-90
2021/09/13 07:26:41;;;;;;;13.52;11.52;;;21.90;69.00;;;;;;4940492;29;20027;-90
2021/09/13 07:29:07;;;;;;;12.10;10.60;;;22.10;68.40;;;;;;4940878;29;20435;-90
2021/09/13 07:31:33;;;;;;;12.02;10.73;;;22.20;68.40;;;;;;4937697;29;20031;-89
2021/09/13 07:33:59;;;;;;;12.98;10.93;;;22.30;68.10;;;;;;4953793;28;20126;-90
2021/09/13 07:36:24;;;;;;;11.95;10.75;;;22.50;67.50;;;;;;4940630;29;20467;-90
2021/09/13 07:38:50;;;;;;;14.38;10.95;;;22.50;66.60;;;;;;4938978;29;20044;-91
2021/09/13 07:41:16;;;;;;;11.25;9.13;;;22.60;66.60;;;;;;4939628;29;20079;-91
2021/09/13 07:43:42;;;;;;;9.57;8.43;;;22.70;66.70;;;;;;4940550;29;20068;-90
2021/09/13 07:46:07;;;;;;;8.55;7.65;;;22.80;66.90;;;;;;4958831;28;20046;-89
2021/09/13 07:48:33;;;;;;;9.77;8.77;;;22.90;66.60;;;;;;4944471;29;20031;-89
2021/09/13 07:50:59;;;;;;;8.02;7.28;;;23.10;65.80;;;;;;4943181;29;20055;-89
2021/09/13 07:53:25;;;;;;;10.52;9.40;;;23.20;65.80;;;;;;4941793;29;20082;-90
2021/09/13 07:55:51;;;;;;;13.40;10.40;;;23.30;64.60;;;;;;4942167;29;20019;-89
2021/09/13 07:58:16;;;;;;;11.07;9.98;;;23.40;64.40;;;;;;4941352;29;20031;-89
2021/09/13 08:00:42;;;;;;;11.73;9.88;;;23.50;64.10;;;;;;4941250;29;20031;-90
2021/09/13 08:03:08;;;;;;;9.38;8.38;;;23.50;63.10;;;;;;4940717;29;20434;-89
2021/09/13 08:05:34;;;;;;;9.70;8.70;;;23.60;63.70;;;;;;4959617;29;20058;-89
2021/09/13 08:08:00;;;;;;;10.73;9.70;;;23.70;63.70;;;;;;4959538;29;20382;-90
2021/09/13 08:10:25;;;;;;;11.45;10.07;;;23.80;62.90;;;;;;4964338;29;20019;-89
2021/09/13 08:12:51;;;;;;;10.77;9.68;;;23.80;62.20;;;;;;4963303;29;20054;-90
2021/09/13 08:15:17;;;;;;;12.95;11.55;;;23.90;62.30;;;;;;4946083;29;20034;-90
2021/09/13 08:17:43;;;;;;;14.40;10.88;;;23.90;61.40;;;;;;4946768;29;20518;-89
2021/09/13 08:20:09;;;;;;;11.38;10.18;;;23.90;61.40;;;;;;4963424;29;20378;-90
2021/09/13 08:22:34;;;;;;;11.27;10.05;;;23.90;59.90;;;;;;4946180;29;20031;-90
2021/09/13 08:25:00;;;;;;;10.73;9.65;;;23.90;60.00;;;;;;4962547;29;20058;-90
2021/09/13 08:27:26;;;;;;;10.90;9.80;;;23.90;60.30;;;;;;4941797;29;20031;-90
2021/09/13 08:29:52;;;;;;;9.68;8.73;;;23.80;59.80;;;;;;4941240;29;20091;-90
2021/09/13 08:32:17;;;;;;;10.00;8.95;;;23.80;60.20;;;;;;4942154;29;20027;-89
2021/09/13 08:34:43;;;;;;;10.35;9.35;;;23.80;60.50;;;;;;4942831;29;20083;-89
2021/09/13 08:37:09;;;;;;;9.82;8.82;;;23.90;60.00;;;;;;4943842;29;20478;-89
2021/09/13 08:39:35;;;;;;;10.38;8.95;;;23.90;60.30;;;;;;4943199;29;20031;-91
2021/09/13 08:42:00;;;;;;;9.27;8.27;;;24.00;60.50;;;;;;4941188;29;20067;-89
2021/09/13 08:44:27;;;;;;;9.93;8.88;;;24.10;60.30;;;;;;4959619;29;20027;-90
2021/09/13 08:47:07;;;;;;;11.13;9.50;;;24.20;60.20;;;;;;4958994;28;20042;-89
2021/09/13 08:49:38;;;;;;;10.85;9.00;;;24.20;59.90;;;;;;4943008;29;20078;-89
2021/09/13 08:52:05;;;;;;;10.95;9.85;;;24.20;60.00;;;;;;4942006;29;20031;-88
2021/09/13 08:54:36;;;;;;;12.18;10.45;;;24.20;59.60;;;;;;4941779;29;20034;-89
2021/09/13 08:57:04;;;;;;;14.93;9.23;;;24.30;59.30;;;;;;4940844;29;20031;-88
2021/09/13 08:59:33;;;;;;;9.50;8.07;;;24.30;59.50;;;;;;4940059;29;20053;-89
2021/09/13 09:02:00;;;;;;;9.48;8.48;;;24.40;59.20;;;;;;4942588;29;20027;-89
2021/09/13 09:04:28;;;;;;;8.80;7.88;;;24.40;59.10;;;;;;4962721;29;20098;-90
2021/09/13 09:06:54;;;;;;;12.68;10.23;;;24.50;58.80;;;;;;4959598;29;20118;-90
2021/09/13 09:09:21;;;;;;;9.88;8.98;;;24.50;58.60;;;;;;4957505;29;20100;-90
2021/09/13 09:12:02;;;;;;;10.60;8.70;;;24.50;58.90;;;;;;4941118;29;20027;-89
2021/09/13 09:14:34;;;;;;;10.43;9.27;;;24.50;59.20;;;;;;4941681;29;20031;-89
2021/09/13 09:17:15;;;;;;;10.60;8.93;;;24.60;59.10;;;;;;4956563;29;20375;-91
2021/09/13 09:19:41;;;;;;;11.77;9.68;;;24.60;59.00;;;;;;4925577;29;20110;-90
2021/09/13 09:22:28;;;;;;;11.93;10.10;;;24.60;59.30;;;;;;4938386;29;20390;-90
2021/09/13 09:24:56;;;;;;;10.80;9.65;;;24.60;59.20;;;;;;4952752;29;20470;-92
2021/09/13 09:27:24;;;;;;;10.48;9.18;;;24.70;59.70;;;;;;4933150;29;20040;-90
2021/09/13 09:29:49;;;;;;;11.48;9.35;;;24.70;59.50;;;;;;4937121;29;20067;-91
2021/09/13 09:32:33;;;;;;;11.15;10.05;;;24.80;59.50;;;;;;4938709;29;20043;-91
2021/09/13 09:35:14;;;;;;;11.40;10.20;;;24.80;59.00;;;;;;4909210;29;20056;-91
2021/09/13 09:37:43;;;;;;;11.05;9.82;;;24.90;59.50;;;;;;4937601;29;20044;-90
2021/09/13 09:40:09;;;;;;;10.00;9.05;;;24.90;59.40;;;;;;4951481;29;20038;-89
2021/09/13 09:42:37;;;;;;;10.57;9.20;;;24.90;59.60;;;;;;4938323;29;20059;-90
2021/09/13 09:45:27;;;;;;;10.55;9.02;;;25.00;59.40;;;;;;4954131;28;20190;-90
2021/09/13 09:48:12;;;;;;;10.50;9.40;;;25.10;58.90;;;;;;4940602;29;20054;-90
2021/09/13 09:50:45;;;;;;;9.48;8.45;;;25.20;58.40;;;;;;4957084;29;20027;-90
2021/09/13 09:53:20;;;;;;;13.10;11.60;;;25.20;58.60;;;;;;4923683;29;20089;-89
2021/09/13 09:55:53;;;;;;;12.15;10.90;;;25.20;57.60;;;;;;4957367;29;20075;-90
2021/09/13 09:58:22;;;;;;;11.20;9.30;;;25.20;57.70;;;;;;4941729;29;20475;-91
2021/09/13 10:00:49;;;;;;;10.95;9.05;;;25.20;58.30;;;;;;4960416;29;20019;-89
2021/09/13 10:03:29;;;;;;;11.35;9.88;;;25.20;58.50;;;;;;4945024;29;20050;-89
2021/09/13 10:05:55;;;;;;;10.05;9.00;;;25.20;57.80;;;;;;4939157;29;20098;-86
2021/09/13 10:08:22;;;;;;;10.95;8.07;;;25.20;58.60;;;;;;4929397;29;20458;-89
2021/09/13 10:10:48;;;;;;;11.77;8.52;;;25.20;58.10;;;;;;4939557;29;20039;-88
2021/09/13 10:13:14;;;;;;;10.13;8.68;;;25.30;58.20;;;;;;4927069;29;20019;-90
2021/09/13 10:15:41;;;;;;;10.23;9.07;;;25.40;58.10;;;;;;4958253;29;20462;-91
2021/09/13 10:18:08;;;;;;;9.65;7.72;;;25.30;58.10;;;;;;4958644;29;20035;-90
2021/09/13 10:20:35;;;;;;;10.77;9.25;;;25.30;58.20;;;;;;4951816;29;20105;-91
2021/09/13 10:23:01;;;;;;;9.35;8.35;;;25.30;58.00;;;;;;4940000;29;20027;-90
2021/09/13 10:25:31;;;;;;;10.40;9.32;;;25.30;57.90;;;;;;4939212;28;20030;-89
2021/09/13 10:28:07;;;;;;;9.57;8.60;;;25.40;57.30;;;;;;4946231;28;20042;-89
2021/09/13 10:30:52;;;;;;;13.43;10.18;;;25.40;56.80;;;;;;4977740;28;20034;-89
2021/09/13 10:33:22;;;;;;;11.23;9.27;;;25.50;55.80;;;;;;4958093;28;20034;-93
2021/09/13 10:35:57;;;;;;;10.32;9.10;;;25.50;56.10;;;;;;4937847;29;20050;-91
2021/09/13 10:38:46;;;;;;;8.90;7.97;;;25.60;55.80;;;;;;4938378;29;20103;-90
2021/09/13 10:41:51;;;;;;;10.15;8.57;;;25.70;56.00;;;;;;4917209;29;20039;-90
2021/09/13 10:44:33;;;;;;;9.02;8.13;;;25.80;53.80;;;;;;4931067;29;20150;-92
2021/09/13 10:47:01;;;;;;;9.85;8.82;;;25.70;55.00;;;;;;4937800;29;20027;-89
2021/09/13 10:49:27;;;;;;;10.32;9.32;;;25.60;55.30;;;;;;4940523;29;20032;-93
2021/09/13 10:52:27;;;;;;;10.38;9.35;;;25.50;55.00;;;;;;4921825;29;20119;-91
2021/09/13 10:55:08;;;;;;;9.85;8.95;;;25.40;54.40;;;;;;4938947;29;20035;-91
2021/09/13 10:57:57;;;;;;;10.25;7.60;;;25.50;54.10;;;;;;4918401;29;20509;-89
2021/09/13 11:00:42;;;;;;;9.98;8.98;;;25.50;53.90;;;;;;4927476;29;20035;-91
2021/09/13 11:03:29;;;;;;;8.77;7.82;;;25.70;54.80;;;;;;4938073;29;20024;-91
2021/09/13 11:08:53;;;;;;;9.13;8.23;;;25.90;54.80;;;;;;4927129;29;20395;-91
2021/09/13 11:11:35;;;;;;;;;;;25.90;54.60;;;;;;4934845;29;20060;-91
2021/09/13 11:14:20;;;;;;;9.52;8.52;;;26.00;52.60;;;;;;4940674;29;19914;-93
2021/09/13 11:16:48;;;;;;;9.55;8.65;;;25.90;54.10;;;;;;4931672;29;20035;-93
2021/09/13 11:19:17;;;;;;;9.05;8.15;;;25.90;54.40;;;;;;4937803;29;20036;-92
2021/09/13 11:21:47;;;;;;;8.30;7.50;;;25.80;54.80;;;;;;4941547;29;20032;-93
2021/09/13 11:24:21;;;;;;;8.38;7.57;;;25.80;55.10;;;;;;4928475;29;20075;-93
2021/09/13 11:26:50;;;;;;;8.95;7.97;;;25.90;54.80;;;;;;4942642;29;20032;-92
2021/09/13 11:29:19;;;;;;;9.38;8.35;;;25.90;54.70;;;;;;4944697;29;20472;-92
2021/09/13 11:31:53;;;;;;;8.25;7.45;;;25.90;54.50;;;;;;4948726;29;20038;-92
2021/09/13 11:34:23;;;;;;;9.57;7.88;;;25.90;54.90;;;;;;4938485;29;20043;-91
2021/09/13 11:36:51;;;;;;;8.18;7.32;;;25.90;55.00;;;;;;4959144;29;20031;-91
2021/09/13 11:39:17;;;;;;;9.35;8.25;;;25.80;55.10;;;;;;4958257;28;20062;-91
2021/09/13 11:42:04;;;;;;;9.55;8.65;;;25.70;55.10;;;;;;4957056;29;20036;-93
2021/09/13 11:44:37;;;;;;;9.93;8.52;;;25.70;53.60;;;;;;4940706;29;20039;-92
2021/09/13 11:47:05;;;;;;;8.60;7.80;;;25.60;54.50;;;;;;4955747;29;20027;-91
2021/09/13 11:49:33;;;;;;;10.30;7.25;;;25.60;54.80;;;;;;4961125;28;20175;-93
2021/09/13 11:52:16;;;;;;;7.28;6.57;;;25.70;55.00;;;;;;4956037;29;20039;-90
2021/09/13 11:54:50;;;;;;;8.38;7.50;;;25.80;55.00;;;;;;4933595;29;20387;-91
2021/09/13 11:57:27;;;;;;;;;;;25.90;55.00;;;;;;4938949;29;20365;-92
2021/09/13 11:59:57;;;;;;;8.68;7.78;;;25.90;54.40;;;;;;4932232;29;19926;-92
2021/09/13 12:02:24;;;;;;;12.23;11.02;;;25.90;54.80;;;;;;4943269;29;20054;-92
2021/09/13 12:04:52;;;;;;;11.80;10.48;;;25.70;53.60;;;;;;4956648;29;20082;-91
2021/09/13 12:07:18;;;;;;;10.90;9.88;;;25.60;53.60;;;;;;4940278;29;20102;-92
2021/09/13 12:09:48;;;;;;;9.02;8.10;;;25.60;53.80;;;;;;4956589;29;20104;-91
2021/09/13 12:12:18;;;;;;;10.70;9.70;;;25.70;54.30;;;;;;4940200;29;20088;-92
2021/09/13 12:14:44;;;;;;;10.15;9.00;;;25.70;54.30;;;;;;4939662;29;20034;-93
2021/09/13 12:17:16;;;;;;;10.10;8.50;;;25.80;54.20;;;;;;4949973;28;20046;-93
2021/09/13 12:19:44;;;;;;;10.52;8.32;;;25.80;54.40;;;;;;4977310;28;20030;-91
2021/09/13 12:22:11;;;;;;;9.32;8.52;;;25.90;54.70;;;;;;4958928;28;20466;-93
2021/09/13 12:24:37;;;;;;;9.57;8.60;;;25.90;54.60;;;;;;4959229;28;20023;-91
2021/09/13 12:27:13;;;;;;;8.35;7.40;;;26.00;54.90;;;;;;4958379;28;20038;-90
2021/09/13 12:29:59;;;;;;;8.48;7.50;;;26.00;55.10;;;;;;4958394;28;20034;-92
2021/09/13 12:32:31;;;;;;;8.95;7.95;;;26.10;55.20;;;;;;4939661;29;20027;-90
2021/09/13 12:35:03;;;;;;;8.52;7.72;;;26.20;55.20;;;;;;4941444;29;20051;-91
2021/09/13 12:37:32;;;;;;;8.55;7.75;;;26.40;55.20;;;;;;4939424;29;20069;-91
2021/09/13 12:40:18;;;;;;;8.70;7.78;;;26.50;54.80;;;;;;4938320;29;20027;-91
2021/09/13 12:43:03;;;;;;;10.25;8.63;;;26.70;53.90;;;;;;4955812;29;20031;-90
2021/09/13 12:45:32;;;;;;;9.60;8.70;;;26.90;53.80;;;;;;4938214;29;20031;-90
2021/09/13 12:48:03;;;;;;;9.57;8.57;;;27.00;53.70;;;;;;4938403;29;20030;-91
2021/09/13 12:50:39;;;;;;;8.30;7.40;;;27.10;52.90;;;;;;4940384;29;20031;-91